createdAt,value
2023-12-09T00:00:27.506Z,37.80
2023-12-09T00:01:30.652Z,39.05
2023-12-09T00:02:32.695Z,37.15
2023-12-09T00:03:35.849Z,25.63
2023-12-09T00:04:40.263Z,32.20
2023-12-09T00:05:43.418Z,38.53
2023-12-09T00:06:49.527Z,38.45
2023-12-09T00:07:52.851Z,44.40
2023-12-09T00:08:54.935Z,44.67
2023-12-09T00:09:58.019Z,32.95
2023-12-09T00:11:00.099Z,28.08
2023-12-09T00:12:05.006Z,33.67
2023-12-09T00:13:07.089Z,36.28
2023-12-09T00:14:10.195Z,31.98
2023-12-09T00:15:12.354Z,37.05
2023-12-09T00:16:16.092Z,34.00
2023-12-09T00:17:18.123Z,38.65
2023-12-09T00:18:21.300Z,32.38
2023-12-09T00:19:23.542Z,38.92
2023-12-09T00:20:26.698Z,39.35
2023-12-09T00:21:28.897Z,39.67
2023-12-09T00:22:32.020Z,36.97
2023-12-09T00:23:34.058Z,33.85
2023-12-09T00:24:37.143Z,30.52
2023-12-09T00:25:39.465Z,32.03
2023-12-09T00:26:42.556Z,34.47
2023-12-09T00:27:45.971Z,32.65
2023-12-09T00:28:49.201Z,34.58
2023-12-09T00:29:51.268Z,35.60
2023-12-09T00:30:54.388Z,37.60
2023-12-09T00:31:56.513Z,43.40
2023-12-09T00:32:59.631Z,31.35
2023-12-09T00:34:01.877Z,26.45
2023-12-09T00:35:05.579Z,38.10
2023-12-09T00:36:09.030Z,26.27
2023-12-09T00:37:12.497Z,33.08
2023-12-09T00:38:14.707Z,35.95
2023-12-09T00:39:17.860Z,30.80
2023-12-09T00:40:20.257Z,35.55
2023-12-09T00:41:22.383Z,32.20
2023-12-09T00:42:26.435Z,34.70
2023-12-09T00:43:30.306Z,31.55
2023-12-09T00:44:33.359Z,42.47
2023-12-09T00:45:35.380Z,50.95
2023-12-09T00:46:38.650Z,42.75
2023-12-09T00:47:40.768Z,37.15
2023-12-09T00:48:43.979Z,27.08
2023-12-09T00:49:46.224Z,34.90
2023-12-09T00:50:48.469Z,30.92
2023-12-09T00:51:51.661Z,34.92
2023-12-09T00:52:53.731Z,34.75
2023-12-09T00:53:56.890Z,36.17
2023-12-09T00:54:59.004Z,38.67
2023-12-09T00:56:02.046Z,46.42
2023-12-09T00:57:04.784Z,32.90
2023-12-09T00:58:07.895Z,37.35
2023-12-09T00:59:11.311Z,37.65
2023-12-09T01:00:16.395Z,37.25
2023-12-09T01:01:18.504Z,33.33
2023-12-09T01:02:20.626Z,36.17
2023-12-09T01:03:23.798Z,44.72
2023-12-09T01:04:25.911Z,36.08
2023-12-09T01:05:29.093Z,37.58
2023-12-09T01:06:31.217Z,33.13
2023-12-09T01:07:34.300Z,29.27
2023-12-09T01:08:36.361Z,28.95
2023-12-09T01:09:39.519Z,38.80
2023-12-09T01:10:41.679Z,35.25
2023-12-09T01:11:43.717Z,33.80
2023-12-09T01:12:46.907Z,37.80
2023-12-09T01:13:49.214Z,48.22
2023-12-09T01:14:53.659Z,39.25
2023-12-09T01:15:55.915Z,28.05
2023-12-09T01:16:59.189Z,32.55
2023-12-09T01:18:01.333Z,29.95
2023-12-09T01:19:04.898Z,32.00
2023-12-09T01:20:07.768Z,40.25
2023-12-09T01:21:10.845Z,32.35
2023-12-09T01:22:14.191Z,28.63
2023-12-09T01:23:17.220Z,32.47
2023-12-09T01:24:20.345Z,35.42
2023-12-09T01:25:23.587Z,36.60
2023-12-09T01:26:25.620Z,43.63
2023-12-09T01:27:28.675Z,44.45
2023-12-09T01:28:30.768Z,33.30
2023-12-09T01:29:33.891Z,58.58
2023-12-09T01:30:37.376Z,52.80
2023-12-09T01:31:40.437Z,52.65
2023-12-09T01:32:42.599Z,44.50
2023-12-09T01:33:46.306Z,43.28
2023-12-09T01:34:48.608Z,46.25
2023-12-09T01:35:51.852Z,47.22
2023-12-09T01:36:54.937Z,42.20
2023-12-09T01:37:57.983Z,46.58
2023-12-09T01:39:00.073Z,50.47
2023-12-09T01:40:03.255Z,44.65
2023-12-09T01:41:05.567Z,59.78
2023-12-09T01:42:10.741Z,52.35
2023-12-09T01:43:12.893Z,52.20
2023-12-09T01:44:15.957Z,35.70
2023-12-09T01:45:18.038Z,32.58
2023-12-09T01:46:22.668Z,35.00
2023-12-09T01:47:25.069Z,35.13
2023-12-09T01:48:28.296Z,36.30
2023-12-09T01:49:31.001Z,41.75
2023-12-09T01:50:34.424Z,38.63
2023-12-09T01:51:36.889Z,34.00
2023-12-09T01:52:40.401Z,46.45
2023-12-09T01:53:43.436Z,37.30
2023-12-09T01:54:46.565Z,44.22
2023-12-09T01:55:48.850Z,41.97
2023-12-09T01:56:52.067Z,41.38
2023-12-09T01:57:54.414Z,42.00
2023-12-09T01:58:57.748Z,39.13
2023-12-09T01:59:59.878Z,43.35
2023-12-09T02:01:03.464Z,43.35
2023-12-09T02:02:07.937Z,34.20
2023-12-09T02:03:11.511Z,44.85
2023-12-09T02:04:13.952Z,45.83
2023-12-09T02:05:16.197Z,39.65
2023-12-09T02:06:19.503Z,44.85
2023-12-09T02:07:21.553Z,42.85
2023-12-09T02:08:23.607Z,68.45
2023-12-09T02:09:26.754Z,53.03
2023-12-09T02:10:28.947Z,47.75
2023-12-09T02:11:41.561Z,48.88
2023-12-09T02:12:49.214Z,41.00
2023-12-09T02:14:00.274Z,44.33
2023-12-09T02:15:06.257Z,34.88
2023-12-09T02:16:13.495Z,47.30
2023-12-09T02:17:20.668Z,57.83
2023-12-09T02:18:25.295Z,49.10
2023-12-09T02:19:28.308Z,48.03
2023-12-09T02:20:31.868Z,44.45
2023-12-09T02:21:58.621Z,44.22
2023-12-09T02:23:09.768Z,33.28
2023-12-09T02:24:12.153Z,33.58
2023-12-09T02:25:15.277Z,47.33
2023-12-09T02:26:26.027Z,57.60
2023-12-09T02:27:33.117Z,42.75
2023-12-09T02:28:47.465Z,47.03
2023-12-09T02:29:55.409Z,68.88
2023-12-09T02:31:00.957Z,58.10
2023-12-09T02:32:07.315Z,47.58
2023-12-09T02:33:09.925Z,35.72
2023-12-09T02:34:14.350Z,35.78
2023-12-09T02:35:18.278Z,74.20
2023-12-09T02:36:23.040Z,54.35
2023-12-09T02:37:26.846Z,39.42
2023-12-09T02:38:32.731Z,38.88
2023-12-09T02:39:35.403Z,43.17
2023-12-09T02:40:39.059Z,50.28
2023-12-09T02:41:41.782Z,37.42
2023-12-09T02:42:44.928Z,22.05
2023-12-09T02:43:47.322Z,39.35
2023-12-09T02:44:50.577Z,49.38
2023-12-09T02:45:52.714Z,50.70
2023-12-09T02:46:58.899Z,49.15
2023-12-09T02:48:01.059Z,49.97
2023-12-09T02:49:04.479Z,42.25
2023-12-09T02:50:07.521Z,45.42
2023-12-09T02:51:10.612Z,41.22
2023-12-09T02:52:12.765Z,41.35
2023-12-09T02:53:16.308Z,43.20
2023-12-09T02:54:19.854Z,42.25
2023-12-09T02:55:23.029Z,58.45
2023-12-09T02:56:25.054Z,49.08
2023-12-09T02:57:28.101Z,49.70
2023-12-09T02:58:30.223Z,43.15
2023-12-09T02:59:32.261Z,45.72
2023-12-09T03:00:35.514Z,46.28
2023-12-09T03:01:37.741Z,40.97
2023-12-09T03:02:41.016Z,40.15
2023-12-09T03:03:43.242Z,48.67
2023-12-09T03:04:47.411Z,43.13
2023-12-09T03:05:49.701Z,53.08
2023-12-09T03:06:52.840Z,47.63
2023-12-09T03:07:55.036Z,32.25
2023-12-09T03:08:58.113Z,41.60
2023-12-09T03:10:01.544Z,43.15
2023-12-09T03:11:04.852Z,53.45
2023-12-09T03:12:07.545Z,45.33
2023-12-09T03:13:10.680Z,43.95
2023-12-09T03:14:12.868Z,44.72
2023-12-09T03:15:16.087Z,37.30
2023-12-09T03:16:19.109Z,43.78
2023-12-09T03:17:23.137Z,45.60
2023-12-09T03:18:25.792Z,47.30
2023-12-09T03:19:29.093Z,50.72
2023-12-09T03:20:31.274Z,41.50
2023-12-09T03:21:33.412Z,34.47
2023-12-09T03:22:36.459Z,38.10
2023-12-09T03:23:38.562Z,32.47
2023-12-09T03:24:44.261Z,40.65
2023-12-09T03:25:47.709Z,38.75
2023-12-09T03:26:52.021Z,32.80
2023-12-09T03:27:54.105Z,30.33
2023-12-09T03:28:57.128Z,33.17
2023-12-09T03:29:59.298Z,35.70
2023-12-09T03:31:04.260Z,41.28
2023-12-09T03:32:06.597Z,35.65
2023-12-09T03:33:09.803Z,34.30
2023-12-09T03:34:13.250Z,33.70
2023-12-09T03:35:16.379Z,26.63
2023-12-09T03:36:18.647Z,30.13
2023-12-09T03:37:24.084Z,39.55
2023-12-09T03:38:26.122Z,36.78
2023-12-09T03:39:29.212Z,36.03
2023-12-09T03:40:31.349Z,34.45
2023-12-09T03:41:35.819Z,36.05
2023-12-09T03:42:37.979Z,31.38
2023-12-09T03:43:41.234Z,29.88
2023-12-09T03:44:43.295Z,37.88
2023-12-09T03:45:45.355Z,41.92
2023-12-09T03:46:48.404Z,32.50
2023-12-09T03:47:50.569Z,38.22
2023-12-09T03:48:53.856Z,21.10
2023-12-09T03:49:56.026Z,33.95
2023-12-09T03:50:59.613Z,29.40
2023-12-09T03:52:01.669Z,35.15
2023-12-09T03:53:04.737Z,31.90
2023-12-09T03:54:06.781Z,28.42
2023-12-09T03:55:10.641Z,32.63
2023-12-09T03:56:12.769Z,38.03
2023-12-09T03:57:17.496Z,33.92
2023-12-09T03:58:21.809Z,29.48
2023-12-09T03:59:24.936Z,33.83
2023-12-09T04:00:27.154Z,35.83
2023-12-09T04:01:29.329Z,33.80
2023-12-09T04:02:32.600Z,36.78
2023-12-09T04:03:34.755Z,37.00
2023-12-09T04:04:40.854Z,33.42
2023-12-09T04:05:42.957Z,35.15
2023-12-09T04:06:46.044Z,38.35
2023-12-09T04:07:48.199Z,39.95
2023-12-09T04:08:50.272Z,45.72
2023-12-09T04:09:53.367Z,48.10
2023-12-09T04:10:55.439Z,37.15
2023-12-09T04:11:58.587Z,38.00
2023-12-09T04:13:02.028Z,38.35
2023-12-09T04:14:05.755Z,34.08
2023-12-09T04:15:09.275Z,32.33
2023-12-09T04:16:12.322Z,37.15
2023-12-09T04:17:14.346Z,39.45
2023-12-09T04:18:18.536Z,34.00
2023-12-09T04:19:20.827Z,29.63
2023-12-09T04:20:24.379Z,39.70
2023-12-09T04:21:26.572Z,35.67
2023-12-09T04:22:29.691Z,35.92
2023-12-09T04:23:31.781Z,33.90
2023-12-09T04:24:34.879Z,29.40
2023-12-09T04:25:37.031Z,33.65
2023-12-09T04:26:40.930Z,29.65
2023-12-09T04:27:43.247Z,37.25
2023-12-09T04:28:48.637Z,28.35
2023-12-09T04:29:50.715Z,31.45
2023-12-09T04:30:53.765Z,30.67
2023-12-09T04:31:56.800Z,29.17
2023-12-09T04:33:00.868Z,35.88
2023-12-09T04:34:03.108Z,28.05
2023-12-09T04:35:07.546Z,37.90
2023-12-09T04:36:11.348Z,37.88
2023-12-09T04:37:14.944Z,37.22
2023-12-09T04:38:17.979Z,42.22
2023-12-09T04:39:20.159Z,36.08
2023-12-09T04:40:23.484Z,38.65
2023-12-09T04:41:25.602Z,37.75
2023-12-09T04:42:30.368Z,39.78
2023-12-09T04:43:32.594Z,43.05
2023-12-09T04:44:35.986Z,38.55
2023-12-09T04:45:39.212Z,36.25
2023-12-09T04:46:42.515Z,40.92
2023-12-09T04:47:45.620Z,39.92
2023-12-09T04:48:47.829Z,43.53
2023-12-09T04:49:50.991Z,41.05
2023-12-09T04:50:53.186Z,44.70
2023-12-09T04:51:56.475Z,41.55
2023-12-09T04:52:58.506Z,39.30
2023-12-09T04:54:01.550Z,38.67
2023-12-09T04:55:04.692Z,38.95
2023-12-09T04:56:08.101Z,41.90
2023-12-09T04:57:11.174Z,40.95
2023-12-09T04:58:13.288Z,38.92
2023-12-09T04:59:16.348Z,35.95
2023-12-09T05:00:20.014Z,35.72
2023-12-09T05:01:24.643Z,30.75
2023-12-09T05:02:26.944Z,38.45
2023-12-09T05:03:30.532Z,38.70
2023-12-09T05:04:33.286Z,37.92
2023-12-09T05:05:36.574Z,36.67
2023-12-09T05:06:39.911Z,41.10
2023-12-09T05:07:43.419Z,34.85
2023-12-09T05:08:45.661Z,34.85
2023-12-09T05:09:49.019Z,40.13
2023-12-09T05:10:51.148Z,39.10
2023-12-09T05:11:54.222Z,40.35
2023-12-09T05:12:56.254Z,42.67
2023-12-09T05:13:59.306Z,39.70
2023-12-09T05:15:01.411Z,41.70
2023-12-09T05:16:07.971Z,41.92
2023-12-09T05:17:10.123Z,39.53
2023-12-09T05:18:13.328Z,39.00
2023-12-09T05:19:15.594Z,32.13
2023-12-09T05:20:18.826Z,36.50
2023-12-09T05:21:20.938Z,40.08
2023-12-09T05:22:38.195Z,31.10
2023-12-09T05:23:40.315Z,31.40
2023-12-09T05:24:43.779Z,29.60
2023-12-09T05:25:45.927Z,34.67
2023-12-09T05:26:48.956Z,27.15
2023-12-09T05:27:51.034Z,39.08
2023-12-09T05:28:54.561Z,35.92
2023-12-09T05:29:56.661Z,26.10
2023-12-09T05:30:59.772Z,24.48
2023-12-09T05:32:04.146Z,37.50
2023-12-09T05:33:07.685Z,41.58
2023-12-09T05:34:10.031Z,28.77
2023-12-09T05:35:13.152Z,33.88
2023-12-09T05:36:15.443Z,41.08
2023-12-09T05:37:18.490Z,40.42
2023-12-09T05:38:20.544Z,39.50
2023-12-09T05:39:23.746Z,36.28
2023-12-09T05:40:25.794Z,34.65
2023-12-09T05:41:28.823Z,27.38
2023-12-09T05:42:31.253Z,26.02
2023-12-09T05:43:34.727Z,33.13
2023-12-09T05:44:36.746Z,29.52
2023-12-09T05:45:39.866Z,31.95
2023-12-09T05:46:42.067Z,41.05
2023-12-09T05:47:46.648Z,46.72
2023-12-09T05:48:49.824Z,48.67
2023-12-09T05:49:52.403Z,39.72
2023-12-09T05:50:55.500Z,31.85
2023-12-09T05:51:57.838Z,36.83
2023-12-09T05:53:02.449Z,29.98
2023-12-09T05:54:04.924Z,37.63
2023-12-09T05:55:08.609Z,41.13
2023-12-09T05:56:11.010Z,45.33
2023-12-09T05:57:14.066Z,39.45
2023-12-09T05:58:16.131Z,37.40
2023-12-09T05:59:19.498Z,41.70
2023-12-09T06:00:21.774Z,39.20
2023-12-09T06:01:24.969Z,34.42
2023-12-09T06:02:27.285Z,38.53
2023-12-09T06:03:32.045Z,32.80
2023-12-09T06:04:34.472Z,41.10
2023-12-09T06:05:37.673Z,39.22
2023-12-09T06:06:39.835Z,38.78
2023-12-09T06:07:42.977Z,33.55
2023-12-09T06:08:45.145Z,36.40
2023-12-09T06:09:48.240Z,33.97
2023-12-09T06:10:50.672Z,36.08
2023-12-09T06:11:53.874Z,34.95
2023-12-09T06:12:55.945Z,34.28
2023-12-09T06:13:59.026Z,30.67
2023-12-09T06:15:01.243Z,38.00
2023-12-09T06:16:04.722Z,38.05
2023-12-09T06:17:06.851Z,36.03
2023-12-09T06:18:09.940Z,31.83
2023-12-09T06:19:13.447Z,28.83
2023-12-09T06:20:16.640Z,34.85
2023-12-09T06:21:22.747Z,30.17
2023-12-09T06:22:26.053Z,26.45
2023-12-09T06:23:28.580Z,34.40
2023-12-09T06:24:30.630Z,30.88
2023-12-09T06:25:33.694Z,31.63
2023-12-09T06:26:42.773Z,35.05
2023-12-09T06:27:45.789Z,22.92
2023-12-09T06:28:47.907Z,26.25
2023-12-09T06:29:52.158Z,36.72
2023-12-09T06:30:56.802Z,31.52
2023-12-09T06:32:00.050Z,29.67
2023-12-09T06:33:02.283Z,33.90
2023-12-09T06:34:05.567Z,29.40
2023-12-09T06:35:09.568Z,34.83
2023-12-09T06:36:12.837Z,29.13
2023-12-09T06:37:15.071Z,30.60
2023-12-09T06:38:18.105Z,32.80
2023-12-09T06:39:20.623Z,32.50
2023-12-09T06:40:24.020Z,34.88
2023-12-09T06:41:26.062Z,36.60
2023-12-09T06:42:29.354Z,37.55
2023-12-09T06:43:31.605Z,38.55
2023-12-09T06:44:34.641Z,38.17
2023-12-09T06:45:36.883Z,33.05
2023-12-09T06:46:41.527Z,29.30
2023-12-09T06:47:43.755Z,31.55
2023-12-09T06:48:47.488Z,34.55
2023-12-09T06:49:49.792Z,28.92
2023-12-09T06:50:54.373Z,40.50
2023-12-09T06:51:56.828Z,32.47
2023-12-09T06:53:01.750Z,40.78
2023-12-09T06:54:04.209Z,33.78
2023-12-09T06:55:08.426Z,34.67
2023-12-09T06:56:19.780Z,28.38
2023-12-09T06:57:22.948Z,27.80
2023-12-09T06:58:25.222Z,29.40
2023-12-09T06:59:28.276Z,32.47
2023-12-09T07:00:30.353Z,34.65
2023-12-09T07:01:34.903Z,32.67
2023-12-09T07:02:48.560Z,27.33
2023-12-09T07:03:59.768Z,31.88
2023-12-09T07:05:01.927Z,34.13
2023-12-09T07:06:07.072Z,33.72
2023-12-09T07:07:15.969Z,27.05
2023-12-09T07:08:21.898Z,30.88
2023-12-09T07:09:24.008Z,21.75
2023-12-09T07:10:26.076Z,35.50
2023-12-09T07:11:29.243Z,37.45
2023-12-09T07:12:31.393Z,29.45
2023-12-09T07:13:33.522Z,29.90
2023-12-09T07:14:36.609Z,36.03
2023-12-09T07:15:38.704Z,31.52
2023-12-09T07:16:41.941Z,27.90
2023-12-09T07:17:44.101Z,31.33
2023-12-09T07:18:48.591Z,27.92
2023-12-09T07:19:52.633Z,26.65
2023-12-09T07:20:55.811Z,26.50
2023-12-09T07:21:59.226Z,32.55
2023-12-09T07:23:02.260Z,33.83
2023-12-09T07:24:06.898Z,34.25
2023-12-09T07:25:11.559Z,32.63
2023-12-09T07:26:14.288Z,36.97
2023-12-09T07:27:18.933Z,36.90
2023-12-09T07:28:20.986Z,31.90
2023-12-09T07:29:24.071Z,27.60
2023-12-09T07:30:26.192Z,35.20
2023-12-09T07:31:29.247Z,32.22
2023-12-09T07:32:31.884Z,34.38
2023-12-09T07:33:35.271Z,37.13
2023-12-09T07:34:37.512Z,37.80
2023-12-09T07:35:41.406Z,31.83
2023-12-09T07:36:43.538Z,38.60
2023-12-09T07:37:48.612Z,34.53
2023-12-09T07:38:50.685Z,35.97
2023-12-09T07:39:53.774Z,35.47
2023-12-09T07:40:56.009Z,33.72
2023-12-09T07:41:59.083Z,29.85
2023-12-09T07:43:01.206Z,27.45
2023-12-09T07:44:04.948Z,32.90
2023-12-09T07:45:08.498Z,31.45
2023-12-09T07:46:11.720Z,33.92
2023-12-09T07:47:13.749Z,35.45
2023-12-09T07:48:16.466Z,35.58
2023-12-09T07:49:19.950Z,32.65
2023-12-09T07:50:22.090Z,30.45
2023-12-09T07:51:25.142Z,25.25
2023-12-09T07:52:27.972Z,28.42
2023-12-09T07:53:32.482Z,33.83
2023-12-09T07:54:35.020Z,34.67
2023-12-09T07:55:38.174Z,33.75
2023-12-09T07:56:40.201Z,36.65
2023-12-09T07:57:43.383Z,29.75
2023-12-09T07:58:46.811Z,34.55
2023-12-09T07:59:50.461Z,35.38
2023-12-09T08:00:53.106Z,25.25
2023-12-09T08:01:56.814Z,39.13
2023-12-09T08:03:04.000Z,28.75
2023-12-09T08:04:07.123Z,28.30
2023-12-09T08:05:09.545Z,30.48
2023-12-09T08:06:13.158Z,27.55
2023-12-09T08:07:15.273Z,34.30
2023-12-09T08:08:18.522Z,29.25
2023-12-09T08:09:22.321Z,34.83
2023-12-09T08:10:24.532Z,36.95
2023-12-09T08:11:27.612Z,29.00
2023-12-09T08:12:29.954Z,28.30
2023-12-09T08:13:33.350Z,37.35
2023-12-09T08:14:35.923Z,37.50
2023-12-09T08:15:39.325Z,37.30
2023-12-09T08:16:42.635Z,35.42
2023-12-09T08:17:45.753Z,36.10
2023-12-09T08:18:48.069Z,37.08
2023-12-09T08:19:51.346Z,32.58
2023-12-09T08:20:54.032Z,34.00
2023-12-09T08:21:57.108Z,38.53
2023-12-09T08:22:59.124Z,32.08
2023-12-09T08:24:02.925Z,39.40
2023-12-09T08:25:08.235Z,35.67
2023-12-09T08:26:11.460Z,32.03
2023-12-09T08:27:13.898Z,32.70
2023-12-09T08:28:17.787Z,36.80
2023-12-09T08:29:19.841Z,48.05
2023-12-09T08:30:22.546Z,36.00
2023-12-09T08:31:25.583Z,40.63
2023-12-09T08:32:27.869Z,38.38
2023-12-09T08:33:31.178Z,43.65
2023-12-09T08:34:33.413Z,36.33
2023-12-09T08:35:38.440Z,46.22
2023-12-09T08:36:42.121Z,46.00
2023-12-09T08:37:45.193Z,42.60
2023-12-09T08:38:47.339Z,40.78
2023-12-09T08:39:49.400Z,35.28
2023-12-09T08:40:53.841Z,31.02
2023-12-09T08:41:55.887Z,30.33
2023-12-09T08:42:58.973Z,27.20
2023-12-09T08:44:01.033Z,27.13
2023-12-09T08:45:04.073Z,34.03
2023-12-09T08:46:06.376Z,34.72
2023-12-09T08:47:09.388Z,41.90
2023-12-09T08:48:11.595Z,42.08
2023-12-09T08:49:14.906Z,31.10
2023-12-09T08:51:22.009Z,37.92
2023-12-09T08:52:25.297Z,35.10
2023-12-09T08:53:27.449Z,24.65
2023-12-09T08:54:30.486Z,31.95
2023-12-09T08:55:32.567Z,27.02
2023-12-09T08:56:37.007Z,31.58
2023-12-09T08:57:39.641Z,30.92
2023-12-09T08:58:42.776Z,28.38
2023-12-09T08:59:44.796Z,36.72
2023-12-09T09:00:51.104Z,30.13
2023-12-09T09:01:54.932Z,33.03
2023-12-09T09:02:58.111Z,30.45
2023-12-09T09:04:00.648Z,35.38
2023-12-09T09:05:04.520Z,33.90
2023-12-09T09:06:06.879Z,31.73
2023-12-09T09:07:10.211Z,35.72
2023-12-09T09:08:12.277Z,30.35
2023-12-09T09:09:15.626Z,32.67
2023-12-09T09:10:20.741Z,30.80
2023-12-09T09:11:22.885Z,35.83
2023-12-09T09:12:27.636Z,28.80
2023-12-09T09:13:30.151Z,34.33
2023-12-09T09:14:33.239Z,35.85
2023-12-09T09:15:36.955Z,31.92
2023-12-09T09:16:39.137Z,30.52
2023-12-09T09:17:42.261Z,34.17
2023-12-09T09:18:44.510Z,31.88
2023-12-09T09:19:47.722Z,37.78
2023-12-09T09:20:49.837Z,40.10
2023-12-09T09:21:53.811Z,35.83
2023-12-09T09:22:56.822Z,33.10
2023-12-09T09:24:00.361Z,37.85
2023-12-09T09:25:02.907Z,45.65
2023-12-09T09:26:07.360Z,37.60
2023-12-09T09:27:09.446Z,38.33
2023-12-09T09:28:13.860Z,38.65
2023-12-09T09:29:15.878Z,34.78
2023-12-09T09:30:21.252Z,34.55
2023-12-09T09:31:23.434Z,35.22
2023-12-09T09:32:26.775Z,44.10
2023-12-09T09:33:31.523Z,39.13
2023-12-09T09:34:35.135Z,39.03
2023-12-09T09:35:37.286Z,40.28
2023-12-09T09:36:40.830Z,36.03
2023-12-09T09:37:42.943Z,31.90
2023-12-09T09:38:46.017Z,35.72
2023-12-09T09:39:48.582Z,37.25
2023-12-09T09:40:52.119Z,36.95
2023-12-09T09:42:00.859Z,40.67
2023-12-09T09:43:09.661Z,39.22
2023-12-09T09:44:15.790Z,37.35
2023-12-09T09:45:27.221Z,39.80
2023-12-09T09:46:32.849Z,37.97
2023-12-09T09:47:38.887Z,37.28
2023-12-09T09:48:41.449Z,32.70
2023-12-09T09:49:47.874Z,38.42
2023-12-09T09:50:53.231Z,34.58
2023-12-09T09:51:59.312Z,36.92
2023-12-09T09:53:04.777Z,31.23
2023-12-09T09:54:12.879Z,34.55
2023-12-09T09:55:15.773Z,35.83
2023-12-09T09:56:18.923Z,31.65
2023-12-09T09:57:22.220Z,32.13
2023-12-09T09:58:25.844Z,34.85
2023-12-09T09:59:29.331Z,34.28
2023-12-09T10:00:32.545Z,31.60
2023-12-09T10:01:34.639Z,36.03
2023-12-09T10:02:39.188Z,37.50
2023-12-09T10:03:41.361Z,33.55
2023-12-09T10:04:44.573Z,31.73
2023-12-09T10:05:46.798Z,31.38
2023-12-09T10:06:50.517Z,38.42
2023-12-09T10:07:53.160Z,36.60
2023-12-09T10:08:56.267Z,32.83
2023-12-09T10:09:59.075Z,39.53
2023-12-09T10:11:02.246Z,30.25
2023-12-09T10:12:04.861Z,34.45
2023-12-09T10:13:07.902Z,37.60
2023-12-09T10:14:09.908Z,41.55
2023-12-09T10:15:14.631Z,36.35
2023-12-09T10:16:16.775Z,39.30
2023-12-09T10:17:20.208Z,38.75
2023-12-09T10:18:25.616Z,51.40
2023-12-09T10:19:28.965Z,50.75
2023-12-09T10:20:31.439Z,50.90
2023-12-09T10:21:34.844Z,50.00
2023-12-09T10:22:37.704Z,51.38
2023-12-09T10:23:40.901Z,49.65
2023-12-09T10:24:50.570Z,49.28
2023-12-09T10:25:54.067Z,45.17
2023-12-09T10:26:56.453Z,45.65
2023-12-09T10:27:58.802Z,50.42
2023-12-09T10:29:02.901Z,46.08
2023-12-09T10:30:07.099Z,47.80
2023-12-09T10:31:11.996Z,49.15
2023-12-09T10:32:14.095Z,47.72
2023-12-09T10:33:16.438Z,53.50
2023-12-09T10:34:19.978Z,53.22
2023-12-09T10:35:22.557Z,52.47
2023-12-09T10:36:25.743Z,52.17
2023-12-09T10:37:28.022Z,45.25
2023-12-09T10:38:32.570Z,48.38
2023-12-09T10:39:35.298Z,49.13
2023-12-09T10:40:38.493Z,47.33
2023-12-09T10:41:40.535Z,53.72
2023-12-09T10:42:43.647Z,49.05
2023-12-09T10:43:46.285Z,49.30
2023-12-09T10:44:49.414Z,47.72
2023-12-09T10:45:51.559Z,47.60
2023-12-09T10:46:56.038Z,44.78
2023-12-09T10:47:58.291Z,48.13
2023-12-09T10:49:00.599Z,46.30
2023-12-09T10:50:04.702Z,49.05
2023-12-09T10:51:07.769Z,47.75
2023-12-09T10:52:10.934Z,48.03
2023-12-09T10:53:13.121Z,43.70
2023-12-09T10:54:16.252Z,51.47
2023-12-09T10:55:18.778Z,45.03
2023-12-09T10:56:22.769Z,45.92
2023-12-09T10:57:25.228Z,45.13
2023-12-09T10:58:29.156Z,48.83
2023-12-09T10:59:31.548Z,43.03
2023-12-09T11:00:37.630Z,47.95
2023-12-09T11:01:40.156Z,45.25
2023-12-09T11:02:46.044Z,49.55
2023-12-09T11:03:48.194Z,51.72
2023-12-09T11:04:52.192Z,45.17
2023-12-09T11:05:56.184Z,44.00
2023-12-09T11:07:01.217Z,44.30
2023-12-09T11:08:04.525Z,49.38
2023-12-09T11:09:07.561Z,46.10
2023-12-09T11:10:12.174Z,48.88
2023-12-09T11:11:15.577Z,51.88
2023-12-09T11:12:29.459Z,51.72
2023-12-09T11:13:34.297Z,51.08
2023-12-09T11:14:39.662Z,47.58
2023-12-09T11:15:41.914Z,48.70
2023-12-09T11:16:47.544Z,50.03
2023-12-09T11:17:54.492Z,53.83
2023-12-09T11:19:00.289Z,55.55
2023-12-09T11:20:11.100Z,55.17
2023-12-09T11:21:15.419Z,49.30
2023-12-09T11:22:20.704Z,45.95
2023-12-09T11:23:22.737Z,47.35
2023-12-09T11:24:31.621Z,47.10
2023-12-09T11:25:33.936Z,54.80
2023-12-09T11:26:38.013Z,53.17
2023-12-09T11:27:40.198Z,55.85
2023-12-09T11:28:59.165Z,52.65
2023-12-09T11:30:02.385Z,51.53
2023-12-09T11:31:06.210Z,54.38
2023-12-09T11:32:08.745Z,55.90
2023-12-09T11:33:13.415Z,57.63
2023-12-09T11:34:17.043Z,54.15
2023-12-09T11:35:20.727Z,51.35
2023-12-09T11:36:25.021Z,55.10
2023-12-09T11:37:29.880Z,51.70
2023-12-09T11:38:32.071Z,51.58
2023-12-09T11:39:35.634Z,48.25
2023-12-09T11:40:37.953Z,51.58
2023-12-09T11:41:41.805Z,52.08
2023-12-09T11:42:44.393Z,51.28
2023-12-09T11:43:47.851Z,51.15
2023-12-09T11:44:50.708Z,56.25
2023-12-09T11:45:54.115Z,55.17
2023-12-09T11:46:56.305Z,51.67
2023-12-09T11:48:00.305Z,55.28
2023-12-09T11:49:05.306Z,55.03
2023-12-09T11:50:09.804Z,53.35
2023-12-09T11:51:12.943Z,51.08
2023-12-09T11:52:16.273Z,57.97
2023-12-09T11:53:18.341Z,57.22
2023-12-09T11:54:21.590Z,58.08
2023-12-09T11:55:23.835Z,53.65
2023-12-09T11:56:27.560Z,51.55
2023-12-09T11:57:30.394Z,56.80
2023-12-09T11:58:34.416Z,49.38
2023-12-09T11:59:37.712Z,54.90
2023-12-09T12:00:40.901Z,52.80
2023-12-09T12:01:43.026Z,55.65
2023-12-09T12:02:46.382Z,52.55
2023-12-09T12:03:49.442Z,60.70
2023-12-09T12:04:53.990Z,55.22
2023-12-09T12:05:56.123Z,53.17
2023-12-09T12:06:59.306Z,55.15
2023-12-09T12:08:01.406Z,54.60
2023-12-09T12:09:04.934Z,51.95
2023-12-09T12:10:08.746Z,51.92
2023-12-09T12:11:11.990Z,50.75
2023-12-09T12:12:14.136Z,49.53
2023-12-09T12:13:17.306Z,50.38
2023-12-09T12:14:20.783Z,52.10
2023-12-09T12:15:24.167Z,50.67
2023-12-09T12:16:26.376Z,48.65
2023-12-09T12:17:30.195Z,50.47
2023-12-09T12:18:33.810Z,48.30
2023-12-09T12:19:37.272Z,52.00
2023-12-09T12:20:40.854Z,49.97
2023-12-09T12:21:44.118Z,47.17
2023-12-09T12:22:46.319Z,49.10
2023-12-09T12:23:53.413Z,50.83
2023-12-09T12:24:55.526Z,46.05
2023-12-09T12:25:58.810Z,50.70
2023-12-09T12:27:00.934Z,49.65
2023-12-09T12:28:05.249Z,51.20
2023-12-09T12:29:09.163Z,49.47
2023-12-09T12:30:14.440Z,53.70
2023-12-09T12:31:16.749Z,54.25
2023-12-09T12:32:19.988Z,54.33
2023-12-09T12:33:23.543Z,53.80
2023-12-09T12:34:28.670Z,51.92
2023-12-09T12:35:30.880Z,58.60
2023-12-09T12:36:36.708Z,53.17
2023-12-09T12:37:39.414Z,49.25
2023-12-09T12:38:42.922Z,57.70
2023-12-09T12:39:45.357Z,57.10
2023-12-09T12:40:49.694Z,48.97
2023-12-09T12:41:51.942Z,54.42
2023-12-09T12:42:55.393Z,55.35
2023-12-09T12:43:57.572Z,51.83
2023-12-09T12:45:00.901Z,53.00
2023-12-09T12:46:04.798Z,52.05
2023-12-09T12:47:08.350Z,51.42
2023-12-09T12:48:10.902Z,56.30
2023-12-09T12:49:13.196Z,50.70
2023-12-09T12:50:17.377Z,56.45
2023-12-09T12:51:19.672Z,53.38
2023-12-09T12:52:25.156Z,52.28
2023-12-09T12:53:28.970Z,50.00
2023-12-09T12:54:32.191Z,50.00
2023-12-09T12:55:34.272Z,51.92
2023-12-09T12:56:37.422Z,51.00
2023-12-09T12:57:40.298Z,54.30
2023-12-09T12:58:43.489Z,58.85
2023-12-09T12:59:45.638Z,56.72
2023-12-09T13:01:04.189Z,58.85
2023-12-09T13:02:06.369Z,55.03
2023-12-09T13:03:09.560Z,54.05
2023-12-09T13:04:12.102Z,56.25
2023-12-09T13:05:15.375Z,53.25
2023-12-09T13:06:17.509Z,54.80
2023-12-09T13:07:20.686Z,57.20
2023-12-09T13:08:24.164Z,48.80
2023-12-09T13:09:27.284Z,56.38
2023-12-09T13:10:29.381Z,54.65
2023-12-09T13:11:32.510Z,55.00
2023-12-09T13:12:35.208Z,54.40
2023-12-09T13:13:37.467Z,51.80
2023-12-09T13:14:40.675Z,54.00
2023-12-09T13:15:43.128Z,54.85
2023-12-09T13:16:46.223Z,50.65
2023-12-09T13:17:48.355Z,51.80
2023-12-09T13:18:51.645Z,46.55
2023-12-09T13:19:54.153Z,49.22
2023-12-09T13:20:57.365Z,52.80
2023-12-09T13:21:59.555Z,50.97
2023-12-09T13:23:03.466Z,51.20
2023-12-09T13:24:07.571Z,53.13
2023-12-09T13:25:10.768Z,56.85
2023-12-09T13:26:14.076Z,51.45
2023-12-09T13:27:16.454Z,57.15
2023-12-09T13:28:19.646Z,55.38
2023-12-09T13:29:21.782Z,52.25
2023-12-09T13:30:24.963Z,54.00
2023-12-09T13:31:27.093Z,50.50
2023-12-09T13:32:30.409Z,51.17
2023-12-09T13:33:33.590Z,54.15
2023-12-09T13:34:36.947Z,44.78
2023-12-09T13:35:39.164Z,48.50
2023-12-09T13:36:42.272Z,47.67
2023-12-09T13:37:44.634Z,49.13